Time;durP1;ratioP1;P1;durP2;ratioP2;P2;SDS_P1;SDS_P2;PMS_P1;PMS_P2;Temp;Humidity;BMP_temperature;BMP_pressure;BME280_temperature;BME280_humidity;BME280_pressure;Samples;Min_cycle;Max_cycle;Signal;HPM_P1;HPM_P2
2022/07/08 00:00:31;;;;;;;1.90;1.00;;;;;;;18.27;91.38;101165.28;5048601;28;20056;-65
2022/07/08 00:02:56;;;;;;;2.13;1.20;;;;;;;18.26;91.85;101157.28;5048172;28;20388;-65
2022/07/08 00:05:22;;;;;;;2.08;1.10;;;;;;;18.25;91.96;101161.78;5048575;28;20050;-65
2022/07/08 00:07:47;;;;;;;1.38;0.95;;;;;;;18.26;91.70;101158.16;5049065;28;20029;-65
2022/07/08 00:10:13;;;;;;;2.13;1.38;;;;;;;18.25;92.15;101166.31;5048499;28;20037;-65
2022/07/08 00:12:39;;;;;;;2.13;1.20;;;;;;;18.25;92.28;101166.31;5047344;28;20042;-65
2022/07/08 00:15:05;;;;;;;11.85;1.90;;;;;;;18.22;91.20;101159.22;5050643;28;20456;-65
2022/07/08 00:17:32;;;;;;;4.05;1.23;;;;;;;18.32;90.63;101174.03;5061070;28;20039;-65
2022/07/08 00:19:57;;;;;;;2.33;1.27;;;;;;;18.36;88.18;101178.34;5063168;28;20032;-65
2022/07/08 00:22:23;;;;;;;5.60;2.08;;;;;;;18.34;84.30;101177.53;5048932;28;20564;-65
2022/07/08 00:24:48;;;;;;;2.92;1.45;;;;;;;18.39;82.74;101182.75;5036906;28;20037;-65
2022/07/08 00:27:14;;;;;;;7.63;1.85;;;;;;;18.41;81.32;101185.34;5046821;28;20542;-65
2022/07/08 00:29:39;;;;;;;5.97;1.60;;;;;;;18.43;80.38;101195.13;5050608;28;20033;-65
2022/07/08 00:32:05;;;;;;;2.90;1.42;;;;;;;18.45;79.52;101205.84;5050220;28;20025;-65
2022/07/08 00:34:31;;;;;;;2.75;1.33;;;;;;;18.44;77.39;101204.06;5050405;28;20078;-65
2022/07/08 00:36:56;;;;;;;3.58;1.92;;;;;;;18.36;75.28;101190.94;5045070;28;20029;-65
2022/07/08 00:39:21;;;;;;;4.35;1.52;;;;;;;18.40;74.69;101202.47;5041456;28;20032;-65
2022/07/08 00:41:47;;;;;;;6.13;1.63;;;;;;;18.43;74.05;101218.50;5048086;28;20396;-65
2022/07/08 00:44:12;;;;;;;7.65;1.40;;;;;;;18.40;73.33;101219.53;5048683;28;20488;-65
2022/07/08 00:46:38;;;;;;;4.00;1.20;;;;;;;18.34;71.23;101231.41;5048982;28;20041;-65
2022/07/08 00:49:03;;;;;;;3.13;1.33;;;;;;;18.40;69.14;101230.31;5047817;28;20101;-65
2022/07/08 00:51:29;;;;;;;3.45;1.70;;;;;;;18.41;68.09;101217.69;5048442;28;20032;-64
2022/07/08 00:53:55;;;;;;;4.55;1.60;;;;;;;18.50;68.48;101230.75;5049173;28;20017;-65
2022/07/08 00:56:21;;;;;;;7.40;1.40;;;;;;;18.54;69.88;101229.66;5041256;28;20078;-65
2022/07/08 00:58:49;;;;;;;3.38;1.10;;;;;;;18.53;69.45;101225.22;5049171;28;20102;-65
2022/07/08 01:01:16;;;;;;;6.43;2.00;;;;;;;18.49;69.14;101229.88;5049374;28;20061;-64
2022/07/08 01:03:43;;;;;;;4.57;1.42;;;;;;;18.52;69.37;101228.88;5047661;28;20135;-64
2022/07/08 01:06:09;;;;;;;4.25;1.23;;;;;;;18.56;67.76;101230.47;5049650;28;20037;-65
2022/07/08 01:08:34;;;;;;;4.20;1.45;;;;;;;18.61;69.64;101239.22;5049583;28;20032;-65
2022/07/08 01:11:00;;;;;;;3.65;1.30;;;;;;;18.55;67.93;101228.72;5048887;28;20017;-65
2022/07/08 01:13:25;;;;;;;4.70;1.65;;;;;;;18.58;67.80;101245.63;5047919;28;20487;-65
2022/07/08 01:15:51;;;;;;;4.07;1.50;;;;;;;18.52;66.83;101235.13;5047076;28;20053;-65
2022/07/08 01:18:28;;;;;;;3.53;1.48;;;;;;;18.53;66.65;101241.41;5064047;28;20052;-64
2022/07/08 01:20:54;;;;;;;3.90;1.20;;;;;;;18.58;65.64;101244.75;5053970;28;20044;-65
2022/07/08 01:23:20;;;;;;;4.13;1.20;;;;;;;18.52;66.09;101256.69;5049436;28;20051;-64
2022/07/08 01:25:46;;;;;;;5.72;1.30;;;;;;;18.56;65.17;101262.81;5049162;28;20496;-64
2022/07/08 01:28:13;;;;;;;4.22;1.35;;;;;;;18.49;63.95;101248.72;5049749;28;20564;-64
2022/07/08 01:30:38;;;;;;;3.55;1.15;;;;;;;18.55;63.49;101255.69;5048652;28;20035;-64
2022/07/08 01:33:04;;;;;;;6.30;1.30;;;;;;;18.51;63.23;101260.31;5030873;28;20025;-64
2022/07/08 01:35:29;;;;;;;4.90;1.77;;;;;;;18.48;62.83;101256.91;5048934;28;20036;-64
2022/07/08 01:37:55;;;;;;;2.50;1.52;;;;;;;18.49;62.58;101255.94;5049280;28;20032;-64
2022/07/08 01:40:20;;;;;;;5.10;1.42;;;;;;;18.47;62.53;101258.69;5048830;28;20031;-64
2022/07/08 01:42:46;;;;;;;5.70;1.25;;;;;;;18.45;63.22;101254.34;5049033;28;20029;-65
2022/07/08 01:45:11;;;;;;;2.67;1.25;;;;;;;18.47;63.00;101256.00;5048905;28;20039;-64
2022/07/08 01:47:36;;;;;;;6.20;1.52;;;;;;;18.48;63.81;101255.09;5048504;28;20043;-64
2022/07/08 01:50:02;;;;;;;7.78;3.35;;;;;;;18.46;62.37;101266.84;5047973;28;20037;-65
2022/07/08 01:52:28;;;;;;;6.72;1.30;;;;;;;18.45;62.94;101265.13;5047524;28;20146;-64
2022/07/08 01:54:53;;;;;;;3.55;1.38;;;;;;;18.44;62.94;101266.03;5047608;28;20032;-65
2022/07/08 01:57:21;;;;;;;2.53;1.40;;;;;;;18.42;62.82;101265.25;5047320;28;20488;-65
2022/07/08 01:59:48;;;;;;;3.85;1.50;;;;;;;18.43;64.29;101265.19;5047817;28;20029;-65
2022/07/08 02:02:16;;;;;;;3.70;1.33;;;;;;;18.43;65.17;101267.00;5048547;28;20108;-65
2022/07/08 02:04:41;;;;;;;5.13;1.70;;;;;;;18.44;65.08;101261.53;5047511;28;20077;-65
2022/07/08 02:07:07;;;;;;;8.57;1.70;;;;;;;18.41;65.23;101259.00;5047491;28;20111;-65
2022/07/08 02:09:34;;;;;;;6.25;1.60;;;;;;;18.33;66.29;101267.34;5049893;28;20492;-64
2022/07/08 02:14:44;;;;;;;2.78;1.67;;;;;;;18.20;66.17;101265.31;5050008;28;20035;-65
2022/07/08 02:17:09;;;;;;;3.58;1.60;;;;;;;18.19;66.27;101264.41;5058465;28;20480;-65
2022/07/08 02:19:35;;;;;;;6.22;1.70;;;;;;;18.16;65.69;101267.25;5055458;28;20076;-65
2022/07/08 02:22:01;;;;;;;4.93;1.83;;;;;;;18.10;66.40;101264.81;5051610;28;20098;-65
2022/07/08 02:24:26;;;;;;;5.93;1.83;;;;;;;18.05;66.22;101256.09;5052241;28;20024;-65
2022/07/08 02:26:52;;;;;;;4.18;1.77;;;;;;;18.04;65.45;101259.69;5052704;28;20023;-65
2022/07/08 02:29:18;;;;;;;4.43;1.65;;;;;;;17.92;65.56;101257.53;5051949;28;20044;-65
2022/07/08 02:31:43;;;;;;;5.20;2.72;;;;;;;17.90;67.10;101272.00;5051373;28;20033;-65
2022/07/08 02:34:09;;;;;;;6.28;1.75;;;;;;;17.77;66.94;101274.34;5052689;28;20100;-65
2022/07/08 02:36:35;;;;;;;7.03;2.00;;;;;;;17.79;66.71;101275.13;5052319;28;20043;-65
2022/07/08 02:39:01;;;;;;;5.15;2.05;;;;;;;17.72;66.43;101280.84;5051647;28;20033;-64
2022/07/08 02:41:26;;;;;;;6.25;1.58;;;;;;;17.63;67.89;101279.41;5051786;28;20332;-65
2022/07/08 02:43:51;;;;;;;5.50;2.38;;;;;;;17.51;68.61;101274.53;5051747;28;20481;-65
2022/07/08 02:46:17;;;;;;;5.38;1.70;;;;;;;17.46;69.60;101283.75;5052104;28;20119;-65
2022/07/08 02:48:42;;;;;;;5.47;1.88;;;;;;;17.31;69.84;101287.00;5037903;28;20033;-65
2022/07/08 02:51:07;;;;;;;5.97;1.88;;;;;;;17.18;70.41;101286.63;5033561;28;20036;-65
2022/07/08 02:53:33;;;;;;;8.77;2.45;;;;;;;17.07;70.61;101288.84;5051719;28;20017;-65
2022/07/08 02:55:58;;;;;;;3.00;1.90;;;;;;;16.92;72.13;101278.69;5051541;28;20033;-65
2022/07/08 02:58:24;;;;;;;3.53;1.63;;;;;;;16.79;73.05;101288.16;5051984;28;20388;-65
2022/07/08 03:00:49;;;;;;;8.18;2.17;;;;;;;16.65;73.69;101291.38;5050773;28;20028;-65
2022/07/08 03:03:15;;;;;;;6.80;1.88;;;;;;;16.53;74.20;101296.31;5052063;28;20029;-65
2022/07/08 03:05:40;;;;;;;3.85;1.58;;;;;;;16.44;74.32;101293.94;5051927;28;20380;-65
2022/07/08 03:08:06;;;;;;;9.63;2.15;;;;;;;16.34;75.34;101289.81;5051530;28;20396;-65
2022/07/08 03:10:31;;;;;;;4.95;2.00;;;;;;;16.30;75.66;101282.78;5036354;28;20021;-65
2022/07/08 03:12:57;;;;;;;5.75;1.95;;;;;;;16.24;75.29;101293.75;5048393;28;20025;-65
2022/07/08 03:15:22;;;;;;;4.50;1.90;;;;;;;16.16;75.67;101291.34;5046000;28;20601;-65
2022/07/08 03:17:48;;;;;;;9.40;2.35;;;;;;;16.05;77.16;101292.63;5065808;28;20051;-65
2022/07/08 03:20:13;;;;;;;3.35;1.70;;;;;;;15.97;78.19;101295.59;5060808;28;20041;-65
2022/07/08 03:22:39;;;;;;;7.30;1.92;;;;;;;15.90;78.30;101293.19;5053228;28;20481;-65
2022/07/08 03:25:05;;;;;;;4.70;2.10;;;;;;;15.80;79.09;101301.53;5052749;28;20106;-65
2022/07/08 03:27:30;;;;;;;4.43;2.35;;;;;;;15.75;79.21;101306.19;5052854;28;20124;-65
2022/07/08 03:29:56;;;;;;;6.45;1.80;;;;;;;15.72;80.19;101305.41;5052586;28;20023;-65
2022/07/08 03:32:23;;;;;;;5.50;2.08;;;;;;;15.60;80.10;101298.63;5052536;28;20108;-65
2022/07/08 03:34:49;;;;;;;7.63;2.40;;;;;;;15.62;80.19;101318.25;5052690;28;20039;-65
2022/07/08 03:37:14;;;;;;;4.25;1.92;;;;;;;15.58;80.62;101316.56;5052498;28;20033;-64
2022/07/08 03:39:39;;;;;;;5.43;2.10;;;;;;;15.52;81.35;101316.78;5052306;28;20208;-65
2022/07/08 03:42:05;;;;;;;4.45;1.88;;;;;;;15.47;81.71;101313.38;5052579;28;20485;-65
2022/07/08 03:44:30;;;;;;;8.13;2.30;;;;;;;15.44;82.27;101318.84;5052195;28;20032;-65
2022/07/08 03:46:56;;;;;;;8.35;2.10;;;;;;;15.40;83.38;101327.03;5036075;28;20108;-65
2022/07/08 03:49:21;;;;;;;5.65;2.38;;;;;;;15.36;83.25;101320.84;5052146;28;20028;-65
2022/07/08 03:51:47;;;;;;;7.18;2.20;;;;;;;15.31;82.87;101325.47;5045415;28;20079;-65
2022/07/08 03:54:12;;;;;;;6.50;2.42;;;;;;;15.32;82.71;101327.22;5029896;28;20025;-65
2022/07/08 03:56:37;;;;;;;6.63;2.25;;;;;;;15.30;83.63;101326.41;5030622;28;20112;-65
2022/07/08 03:59:03;;;;;;;6.60;2.28;;;;;;;15.32;82.52;101326.38;5030349;28;20048;-65
2022/07/08 04:01:28;;;;;;;4.95;2.22;;;;;;;15.34;81.82;101336.09;5030455;28;20029;-65
2022/07/08 04:03:54;;;;;;;7.43;2.30;;;;;;;15.34;82.10;101333.41;5030110;28;20048;-65
2022/07/08 04:06:19;;;;;;;9.38;2.88;;;;;;;15.32;82.22;101337.94;5030233;28;20533;-65
2022/07/08 04:08:45;;;;;;;8.23;2.50;;;;;;;15.27;83.03;101339.88;5039282;28;20024;-65
2022/07/08 04:11:11;;;;;;;12.57;3.67;;;;;;;15.24;83.59;101339.09;5043842;28;20018;-65
2022/07/08 04:13:37;;;;;;;5.35;2.35;;;;;;;15.21;84.19;101339.19;5031073;28;20033;-65
2022/07/08 04:16:05;;;;;;;17.50;2.72;;;;;;;15.17;84.47;101345.59;5032008;28;20053;-65
2022/07/08 04:18:31;;;;;;;7.90;2.63;;;;;;;15.15;84.92;101340.28;5061766;28;20053;-65
2022/07/08 04:20:56;;;;;;;7.00;2.75;;;;;;;15.14;84.81;101345.69;5034464;28;20082;-65
2022/07/08 04:23:22;;;;;;;6.28;2.45;;;;;;;15.06;84.69;101334.28;5045323;28;20071;-65
2022/07/08 04:25:48;;;;;;;5.63;2.00;;;;;;;15.11;85.32;101345.75;5049733;28;20036;-65
2022/07/08 04:28:13;;;;;;;6.97;2.22;;;;;;;15.13;85.26;101352.84;5049030;28;20028;-65
2022/07/08 04:30:39;;;;;;;5.05;2.58;;;;;;;15.18;86.62;101355.38;5049347;28;20079;-65
2022/07/08 04:33:05;;;;;;;6.28;2.30;;;;;;;15.18;86.54;101350.91;5049022;28;20570;-65
2022/07/08 04:35:31;;;;;;;7.30;2.63;;;;;;;15.25;86.61;101357.84;5050191;28;20434;-65
2022/07/08 04:37:56;;;;;;;7.65;2.55;;;;;;;15.28;86.77;101360.41;5050097;28;20051;-65
2022/07/08 04:40:22;;;;;;;5.82;2.13;;;;;;;15.34;86.86;101360.22;5049960;28;20088;-65
2022/07/08 04:42:47;;;;;;;5.97;3.03;;;;;;;15.42;87.60;101363.56;5043623;28;20044;-65
2022/07/08 04:45:13;;;;;;;7.65;2.67;;;;;;;15.50;87.13;101361.53;5029743;28;20108;-65
2022/07/08 04:47:38;;;;;;;7.13;2.40;;;;;;;15.60;87.13;101364.81;5043476;28;20028;-65
2022/07/08 04:50:04;;;;;;;7.03;2.60;;;;;;;15.74;88.00;101355.41;5050965;28;20029;-65
2022/07/08 04:52:29;;;;;;;7.15;2.58;;;;;;;15.98;86.07;101355.53;5038221;28;20102;-65
2022/07/08 04:54:55;;;;;;;5.75;2.30;;;;;;;16.07;84.86;101355.19;5031289;28;20032;-65
2022/07/08 04:57:20;;;;;;;5.57;2.67;;;;;;;16.08;85.23;101355.16;5031281;28;20040;-65
2022/07/08 04:59:46;;;;;;;7.78;2.80;;;;;;;16.14;85.56;101362.13;5030157;28;20103;-65
2022/07/08 05:02:11;;;;;;;10.90;2.50;;;;;;;16.12;86.49;101359.50;5029708;28;20033;-65
2022/07/08 05:04:36;;;;;;;5.47;2.00;;;;;;;16.25;86.24;101373.38;5029510;28;20117;-65
2022/07/08 05:07:02;;;;;;;5.25;2.58;;;;;;;16.33;86.53;101365.94;5033604;28;20365;-67
2022/07/08 05:09:27;;;;;;;5.65;2.33;;;;;;;16.41;87.05;101363.84;5049978;28;20112;-65
2022/07/08 05:11:53;;;;;;;5.00;2.20;;;;;;;16.47;86.40;101356.50;5050205;28;20104;-65
2022/07/08 05:14:18;;;;;;;6.55;2.70;;;;;;;16.69;85.70;101372.72;5051071;28;20564;-65
2022/07/08 05:16:44;;;;;;;4.85;2.25;;;;;;;16.85;85.73;101369.41;5048840;28;20029;-65
2022/07/08 05:19:10;;;;;;;7.60;2.40;;;;;;;17.28;85.44;101363.28;5050760;28;20171;-65
2022/07/08 05:21:36;;;;;;;6.05;2.10;;;;;;;17.62;82.41;101374.56;5049656;28;20100;-65
2022/07/08 05:24:06;;;;;;;4.63;2.70;;;;;;;17.74;80.30;101368.66;5050072;28;20113;-65
2022/07/08 05:26:32;;;;;;;6.82;2.30;;;;;;;17.75;78.77;101354.28;5049989;28;20166;-65
2022/07/08 05:28:58;;;;;;;8.88;2.63;;;;;;;17.75;77.30;101364.16;5050941;28;20096;-65
2022/07/08 05:31:23;;;;;;;10.55;3.17;;;;;;;17.81;76.69;101359.41;5050865;28;20024;-65
2022/07/08 05:33:49;;;;;;;8.32;2.92;;;;;;;17.90;76.44;101368.91;5050194;28;20055;-65
2022/07/08 05:36:15;;;;;;;8.80;2.38;;;;;;;17.96;75.16;101360.56;5050615;28;20033;-65
2022/07/08 05:38:40;;;;;;;5.65;2.13;;;;;;;18.07;74.91;101367.28;5050773;28;20480;-65
2022/07/08 05:41:05;;;;;;;5.28;2.67;;;;;;;18.14;72.06;101373.28;5049679;28;20427;-65
2022/07/08 05:43:31;;;;;;;3.33;1.55;;;;;;;18.22;73.73;101366.63;5049458;28;20472;-65
2022/07/08 05:45:56;;;;;;;10.07;1.95;;;;;;;18.31;72.37;101368.94;5050637;28;20763;-65
2022/07/08 05:48:22;;;;;;;8.05;2.38;;;;;;;18.41;72.42;101371.25;5050505;28;20029;-65
2022/07/08 05:50:48;;;;;;;7.95;2.80;;;;;;;18.37;72.04;101375.88;5050587;28;20107;-65
2022/07/08 05:53:17;;;;;;;4.97;1.75;;;;;;;18.56;72.20;101381.38;5050142;28;20476;-65
2022/07/08 05:55:43;;;;;;;5.03;2.08;;;;;;;18.64;71.34;101384.63;5050387;28;20032;-65
2022/07/08 05:58:09;;;;;;;6.57;2.17;;;;;;;18.76;71.08;101393.06;5050347;28;20072;-65
2022/07/08 06:00:34;;;;;;;5.28;1.83;;;;;;;18.88;70.73;101383.53;5049543;28;20049;-65
2022/07/08 06:03:00;;;;;;;6.47;1.80;;;;;;;18.91;71.03;101391.50;5050579;28;20036;-66
2022/07/08 06:05:26;;;;;;;5.22;1.73;;;;;;;19.02;67.86;101381.97;5050180;28;20087;-66
2022/07/08 06:07:51;;;;;;;9.95;2.00;;;;;;;19.08;69.29;101386.19;5049023;28;20025;-65
2022/07/08 06:10:17;;;;;;;5.63;2.08;;;;;;;19.19;66.31;101390.16;5048531;28;20024;-65
2022/07/08 06:12:42;;;;;;;7.28;2.10;;;;;;;19.22;65.47;101389.16;5048117;28;20029;-66
2022/07/08 06:15:13;;;;;;;9.10;1.98;;;;;;;19.38;65.44;101388.41;5048848;28;20518;-66
2022/07/08 06:17:39;;;;;;;3.60;1.40;;;;;;;19.37;64.84;101361.50;5060314;28;20087;-65
2022/07/08 06:20:05;;;;;;;7.15;2.28;;;;;;;19.65;64.51;101399.72;5056917;28;20433;-65
2022/07/08 06:22:31;;;;;;;5.05;2.22;;;;;;;19.68;64.01;101404.97;5050018;28;20082;-65
2022/07/08 06:24:56;;;;;;;4.28;2.15;;;;;;;19.85;64.23;101398.75;5050615;28;20553;-65
2022/07/08 06:27:21;;;;;;;5.38;1.52;;;;;;;19.98;63.93;101405.28;5042668;28;20032;-65
2022/07/08 06:29:47;;;;;;;2.90;1.65;;;;;;;20.02;62.21;101413.16;5050265;28;20086;-65
2022/07/08 06:32:14;;;;;;;6.20;1.67;;;;;;;20.01;61.95;101414.13;5049934;28;20121;-65
2022/07/08 06:34:40;;;;;;;4.32;1.52;;;;;;;20.03;61.76;101378.94;5050140;28;20115;-65
2022/07/08 06:37:05;;;;;;;8.38;2.30;;;;;;;20.29;61.46;101410.97;5049284;28;20117;-65
2022/07/08 06:39:31;;;;;;;4.95;1.85;;;;;;;20.32;60.21;101413.50;5049561;28;20033;-66
2022/07/08 06:41:56;;;;;;;6.78;2.13;;;;;;;20.45;61.22;101410.09;5048714;28;20037;-65
2022/07/08 06:44:21;;;;;;;7.93;1.70;;;;;;;20.70;60.76;101398.91;5040339;28;20160;-65
2022/07/08 06:46:47;;;;;;;4.32;1.50;;;;;;;20.78;60.19;101408.38;5029482;28;20076;-65
2022/07/08 06:49:12;;;;;;;2.78;1.42;;;;;;;20.72;56.59;101407.81;5043050;28;20542;-66
2022/07/08 06:51:38;;;;;;;3.13;1.40;;;;;;;20.75;58.14;101416.66;5048193;28;20520;-65
2022/07/08 06:56:47;;;;;;;5.45;1.90;;;;;;;21.02;57.26;101419.72;5052175;28;20085;-65
2022/07/08 06:59:13;;;;;;;3.35;1.60;;;;;;;21.13;57.08;101416.47;5053320;28;20468;-65
2022/07/08 07:01:38;;;;;;;6.18;2.22;;;;;;;21.10;56.04;101419.34;5052454;28;20492;-65
2022/07/08 07:04:03;;;;;;;8.10;1.70;;;;;;;20.99;55.89;101428.00;5053204;28;20495;-65
2022/07/08 07:06:29;;;;;;;5.20;1.63;;;;;;;21.11;55.86;101424.66;5053312;28;20067;-65
2022/07/08 07:08:55;;;;;;;6.53;1.30;;;;;;;21.33;54.62;101419.84;5053139;28;20036;-65
2022/07/08 07:11:21;;;;;;;4.20;1.95;;;;;;;21.41;54.56;101422.13;5046765;28;20669;-65
2022/07/08 07:13:47;;;;;;;6.55;2.00;;;;;;;21.47;53.40;101424.50;5045813;28;20116;-65
2022/07/08 07:16:13;;;;;;;5.20;2.03;;;;;;;21.70;53.44;101430.38;5044510;28;20029;-65
2022/07/08 07:18:39;;;;;;;7.20;1.48;;;;;;;21.62;53.24;101427.25;5044120;28;20529;-65
2022/07/08 07:21:05;;;;;;;6.40;1.50;;;;;;;21.88;54.51;101431.22;5048184;28;20412;-65
2022/07/08 07:23:30;;;;;;;7.80;1.80;;;;;;;;;;5039441;28;20032;-65
2022/07/08 07:25:56;;;;;;;4.38;1.55;;;;;;;22.07;53.02;101431.94;5035536;28;20400;-65
2022/07/08 07:28:21;;;;;;;4.20;1.42;;;;;;;22.32;52.34;101440.41;5048704;28;20039;-65
2022/07/08 07:30:47;;;;;;;3.25;1.27;;;;;;;22.59;51.95;101438.78;5041634;28;20029;-64
2022/07/08 07:33:12;;;;;;;4.45;1.42;;;;;;;22.72;48.60;101426.22;5047417;28;20462;-65
2022/07/08 07:35:38;;;;;;;5.63;1.60;;;;;;;22.81;49.67;101431.13;5042013;28;20467;-64
2022/07/08 07:38:03;;;;;;;2.70;1.23;;;;;;;23.05;47.63;101435.03;5035214;28;20076;-64
2022/07/08 07:40:29;;;;;;;3.53;1.02;;;;;;;23.13;46.23;101431.88;5049463;28;20472;-65
2022/07/08 07:42:54;;;;;;;2.83;1.30;;;;;;;23.53;48.22;101436.56;5063757;28;20429;-64
2022/07/08 07:45:20;;;;;;;3.20;1.10;;;;;;;23.74;47.33;101437.03;5050378;28;20533;-64
2022/07/08 07:47:45;;;;;;;4.38;1.30;;;;;;;24.10;46.20;101423.81;5049313;28;20388;-64
2022/07/08 07:50:12;;;;;;;2.78;1.20;;;;;;;24.43;45.11;101432.44;5032174;28;20037;-65
2022/07/08 07:52:38;;;;;;;4.15;1.30;;;;;;;24.65;43.75;101424.53;5046182;28;20025;-64
2022/07/08 07:55:05;;;;;;;4.53;1.13;;;;;;;24.90;44.43;101429.19;5045518;28;20024;-65
2022/07/08 07:57:31;;;;;;;4.90;1.10;;;;;;;24.97;43.61;101427.78;5048289;28;20464;-64
2022/07/08 07:59:56;;;;;;;3.42;1.27;;;;;;;25.10;43.47;101421.38;5036028;28;20063;-64
2022/07/08 08:02:21;;;;;;;4.75;1.25;;;;;;;25.17;41.80;101439.03;5028758;28;20030;-64
2022/07/08 08:04:47;;;;;;;6.65;1.60;;;;;;;25.24;41.96;101434.88;5028537;28;20029;-65
2022/07/08 08:07:12;;;;;;;2.97;1.02;;;;;;;25.34;43.09;101430.53;5042129;28;20628;-64
2022/07/08 08:09:38;;;;;;;4.80;1.17;;;;;;;25.46;41.67;101432.44;5038962;28;20041;-65
2022/07/08 08:12:03;;;;;;;5.72;1.25;;;;;;;25.79;41.25;101435.44;5044044;28;20026;-65
2022/07/08 08:14:29;;;;;;;4.28;0.90;;;;;;;26.09;42.47;101417.81;5029063;28;20045;-64
2022/07/08 08:16:54;;;;;;;6.85;1.30;;;;;;;26.02;42.30;101425.59;5034453;28;20036;-64
2022/07/08 08:19:20;;;;;;;5.55;1.58;;;;;;;26.03;41.21;101421.88;5027731;28;20413;-65
2022/07/08 08:21:45;;;;;;;3.25;0.98;;;;;;;25.77;41.74;101423.75;5022624;28;20091;-65
2022/07/08 08:24:10;;;;;;;8.63;1.52;;;;;;;25.76;42.01;101427.50;5000487;28;20025;-65
2022/07/08 08:26:36;;;;;;;4.05;1.10;;;;;;;25.87;41.15;101424.84;5023225;28;20029;-65
2022/07/08 08:29:01;;;;;;;6.80;1.60;;;;;;;25.95;42.24;101427.88;5024574;28;20492;-65
2022/07/08 08:31:27;;;;;;;5.75;1.13;;;;;;;26.59;40.62;101421.19;5018124;28;20037;-65
2022/07/08 08:33:52;;;;;;;2.35;1.15;;;;;;;26.71;39.53;101419.41;5022646;28;20028;-64
2022/07/08 08:36:18;;;;;;;4.50;1.17;;;;;;;26.83;40.68;101427.53;5018906;28;20541;-65
2022/07/08 08:38:43;;;;;;;6.00;1.20;;;;;;;26.94;39.04;101434.88;5022712;28;20384;-65
2022/07/08 08:41:10;;;;;;;3.22;1.10;;;;;;;26.76;39.67;101425.38;5020600;28;20029;-64
2022/07/08 08:43:35;;;;;;;4.50;1.73;;;;;;;26.83;39.22;101415.72;5012528;28;20017;-64
2022/07/08 08:46:01;;;;;;;3.65;1.30;;;;;;;26.90;40.06;101419.72;5028544;28;20025;-64
2022/07/08 08:48:34;;;;;;;2.72;1.10;;;;;;;26.76;38.56;101417.19;5028721;28;20040;-64
2022/07/08 08:51:02;;;;;;;5.35;1.17;;;;;;;27.10;39.76;101417.16;5029707;28;20037;-64
2022/07/08 08:53:30;;;;;;;4.47;1.48;;;;;;;27.39;38.65;101414.00;5027390;28;20540;-64
2022/07/08 08:55:57;;;;;;;3.30;1.55;;;;;;;27.35;38.82;101401.59;5024162;28;20033;-64
2022/07/08 08:58:23;;;;;;;3.33;1.17;;;;;;;27.47;37.71;101406.94;5029607;28;20083;-65
2022/07/08 09:00:49;;;;;;;4.75;1.15;;;;;;;27.69;38.02;101411.53;5028295;28;20116;-64
2022/07/08 09:03:14;;;;;;;2.33;1.10;;;;;;;27.61;37.64;101414.88;5022468;28;20122;-64
2022/07/08 09:05:40;;;;;;;3.97;1.13;;;;;;;27.75;39.41;101405.56;5027970;28;20040;-64
2022/07/08 09:08:05;;;;;;;4.38;1.30;;;;;;;27.80;37.13;101397.84;5022612;28;20499;-64
2022/07/08 09:10:31;;;;;;;4.30;1.20;;;;;;;27.76;37.24;101408.16;5015831;28;20154;-64
2022/07/08 09:13:10;;;;;;;2.55;1.10;;;;;;;27.87;36.72;101405.44;5013870;28;20375;-65
2022/07/08 09:15:41;;;;;;;4.45;1.20;;;;;;;27.94;37.96;101401.22;5020961;28;20075;-64
2022/07/08 09:18:12;;;;;;;3.08;1.30;;;;;;;27.87;37.62;101405.44;5044437;28;20041;-64
2022/07/08 09:20:46;;;;;;;5.65;1.40;;;;;;;28.13;37.15;101404.16;5047616;28;20489;-64
2022/07/08 09:23:19;;;;;;;3.78;1.02;;;;;;;28.17;37.57;101404.78;5046680;28;20468;-64
2022/07/08 09:25:48;;;;;;;4.28;1.10;;;;;;;28.01;36.53;101405.19;5048776;28;20107;-64
2022/07/08 09:28:15;;;;;;;5.22;1.45;;;;;;;27.99;35.95;101407.16;5048691;28;20021;-64
2022/07/08 09:30:43;;;;;;;2.65;1.35;;;;;;;27.72;37.97;101417.63;5047890;28;20033;-64
2022/07/08 09:33:10;;;;;;;2.13;1.02;;;;;;;27.22;36.84;101407.13;5032070;28;20033;-64
2022/07/08 09:35:38;;;;;;;3.47;1.23;;;;;;;27.35;38.72;101420.72;5032423;28;20116;-64
2022/07/08 09:38:08;;;;;;;4.07;1.23;;;;;;;27.54;36.95;101408.19;5046634;28;20096;-63
2022/07/08 09:40:34;;;;;;;2.90;0.95;;;;;;;27.70;37.30;101411.41;5048279;28;20025;-63
2022/07/08 09:43:02;;;;;;;4.90;1.10;;;;;;;27.62;37.15;101411.16;5049238;28;20033;-62
2022/07/08 09:45:29;;;;;;;4.85;1.00;;;;;;;27.57;36.43;101407.94;5048870;28;20078;-63
2022/07/08 09:48:06;;;;;;;4.78;1.60;;;;;;;27.67;37.15;101413.50;5048802;28;20025;-63
2022/07/08 09:50:36;;;;;;;4.40;1.40;;;;;;;27.86;37.46;101406.41;5049406;28;20074;-63
2022/07/08 09:53:18;;;;;;;3.63;1.00;;;;;;;28.21;37.25;101415.34;5050792;28;20032;-63
2022/07/08 09:55:47;;;;;;;3.42;1.20;;;;;;;28.25;38.07;101411.31;5050157;28;20427;-63
2022/07/08 09:58:14;;;;;;;3.28;1.08;;;;;;;28.28;36.73;101411.09;5050412;28;20472;-63
2022/07/08 10:00:41;;;;;;;5.80;1.08;;;;;;;28.26;36.39;101407.63;5049398;28;20082;-63
2022/07/08 10:03:07;;;;;;;2.75;1.17;;;;;;;28.10;36.94;101415.38;5050295;28;20368;-63
2022/07/08 10:05:32;;;;;;;4.55;1.02;;;;;;;28.20;37.69;101416.31;5050152;28;20096;-63
2022/07/08 10:07:58;;;;;;;1.73;0.77;;;;;;;28.24;35.31;101417.81;5050482;28;20148;-63
2022/07/08 10:10:24;;;;;;;5.22;1.15;;;;;;;28.33;35.55;101425.28;5050579;28;20021;-63
2022/07/08 10:12:53;;;;;;;4.57;1.20;;;;;;;28.01;34.97;101417.97;5049479;28;20111;-63
2022/07/08 10:15:20;;;;;;;3.65;0.90;;;;;;;28.23;37.23;101415.22;5049690;28;20041;-63
2022/07/08 10:17:48;;;;;;;5.25;0.85;;;;;;;28.49;36.50;101408.44;5036708;28;20141;-62
2022/07/08 10:20:16;;;;;;;2.17;0.90;;;;;;;28.71;35.33;101408.34;5014783;28;20030;-62
2022/07/08 10:22:46;;;;;;;3.00;0.88;;;;;;;28.59;34.70;101403.03;5010404;28;20113;-62
2022/07/08 10:25:13;;;;;;;8.15;1.20;;;;;;;28.74;36.01;101401.72;5012776;28;20112;-62
2022/07/08 10:27:39;;;;;;;2.72;0.93;;;;;;;29.14;36.83;101411.00;5030021;28;20036;-63
2022/07/08 10:30:14;;;;;;;1.58;0.88;;;;;;;29.38;34.22;101414.31;5032435;28;20021;-63
2022/07/08 10:32:40;;;;;;;2.78;0.80;;;;;;;29.34;34.41;101412.84;5033757;28;20465;-63
2022/07/08 10:35:17;;;;;;;2.45;0.90;;;;;;;29.49;36.76;101414.19;5031280;28;20022;-63
2022/07/08 10:38:01;;;;;;;2.13;0.90;;;;;;;29.21;35.14;101406.72;5019449;28;20018;-62
2022/07/08 10:40:59;;;;;;;2.47;0.70;;;;;;;29.10;36.06;101412.25;5014989;28;20109;-62
2022/07/08 10:43:27;;;;;;;2.22;0.82;;;;;;;29.09;34.73;101413.28;5015392;28;20060;-62
2022/07/08 10:46:12;;;;;;;6.25;0.98;;;;;;;29.31;33.62;101407.63;5033557;28;20106;-63
2022/07/08 10:48:41;;;;;;;3.58;0.73;;;;;;;29.50;34.05;101407.72;5033602;28;20029;-63
2022/07/08 10:51:29;;;;;;;2.80;1.00;;;;;;;29.46;34.40;101411.75;5032888;28;20022;-62
2022/07/08 10:53:56;;;;;;;3.65;0.80;;;;;;;29.42;34.77;101404.81;5018362;28;20449;-62
2022/07/08 10:56:49;;;;;;;5.07;1.20;;;;;;;29.58;33.01;101416.13;5033544;28;20037;-62
2022/07/08 10:59:22;;;;;;;4.25;0.90;;;;;;;29.37;32.56;101407.94;5033468;28;20040;-62
2022/07/08 11:01:54;;;;;;;5.10;1.42;;;;;;;29.33;33.79;101400.13;5033630;28;20036;-62
2022/07/08 11:04:31;;;;;;;2.13;0.88;;;;;;;29.57;34.60;101397.97;5034281;28;20033;-64
2022/07/08 11:07:29;;;;;;;6.60;1.30;;;;;;;29.96;33.54;101408.09;5033425;28;20084;-63
2022/07/08 11:10:04;;;;;;;4.18;1.30;;;;;;;29.80;34.12;101407.75;5032914;28;20029;-63
2022/07/08 11:12:37;;;;;;;2.85;1.10;;;;;;;29.97;33.19;101404.31;5032967;28;20037;-63
2022/07/08 11:15:10;;;;;;;2.47;1.42;;;;;;;30.11;33.95;101398.44;5032927;28;20052;-63
2022/07/08 11:17:37;;;;;;;3.67;1.20;;;;;;;30.46;33.27;101401.56;5046158;28;20115;-63
2022/07/08 11:20:07;;;;;;;5.90;1.67;;;;;;;30.80;33.35;101399.28;5049572;28;20098;-63
2022/07/08 11:22:35;;;;;;;5.20;2.10;;;;;;;30.68;34.09;101408.66;5044962;28;20094;-64
2022/07/08 11:25:01;;;;;;;6.10;2.25;;;;;;;30.50;33.21;101408.50;5033128;28;20036;-64
2022/07/08 11:27:31;;;;;;;7.32;2.20;;;;;;;29.90;32.90;101399.56;5042327;28;20025;-61
2022/07/08 11:29:57;;;;;;;6.60;2.40;;;;;;;29.81;33.30;101398.50;5040124;28;20029;-62